Homeworth, Ohio
Current Conditions -  °F | °C
As of 2:51 AM on Friday 24 Oct 2014 (Local Time) from KCAK Reporting Station
Haze Haze  
Wind Chill: 33°   Ceiling: Unl
Heat Index: 37°   Visibility: 5mi
Dew Point: 34°   Wind: 5mph
Humidity: 89%   Direction: 280°W
Pressure: 30.09"   Gusts: NA
Location:  40.84°N, 81.07°W
Report Text: KCAK 240651Z 28004KT 5SM BR CLR 03/01 A3009 RMK AO2 SLP194 T00280011 $
Loading
Personal Weather Stations






























Interactive Weather Map
Tropical Storm Tracking
New forecast layout! Learn more

10-Day Weather Forecast

Advertisements
Track Severe Weather on mobile